Time;durP1;ratioP1;P1;durP2;ratioP2;P2;SDS_P1;SDS_P2;PMS_P1;PMS_P2;Temp;Humidity;BMP_temperature;BMP_pressure;BME280_temperature;BME280_humidity;BME280_pressure;Samples;Min_cycle;Max_cycle;Signal;HPM_P1;HPM_P2
2021/12/01 00:01:45;;;;;;;6.93;6.32;;;;;;;8.91;100.00;100107.56;4797278;29;20038;-91
2021/12/01 00:04:17;;;;;;;6.03;5.47;;;;;;;8.91;100.00;100102.31;4799121;29;20046;-91
2021/12/01 00:07:52;;;;;;;6.22;5.63;;;;;;;8.93;100.00;100090.75;4800827;29;20123;-91
2021/12/01 00:10:34;;;;;;;6.15;5.55;;;;;;;8.93;100.00;100090.75;4888022;29;20057;-91
2021/12/01 00:13:09;;;;;;;5.88;5.38;;;;;;;8.90;100.00;100070.00;4906620;29;20041;-85
2021/12/01 00:19:40;;;;;;;6.13;5.22;;;;;;;9.03;100.00;100075.09;5005993;28;20065;-85
2021/12/01 00:25:25;;;;;;;5.60;5.10;;;;;;;8.93;100.00;100040.06;4973996;28;20098;-91
2021/12/01 00:28:01;;;;;;;5.65;4.60;;;;;;;8.95;100.00;100032.91;4986251;28;20027;-91
2021/12/01 00:33:53;;;;;;;4.88;4.38;;;;;;;8.94;100.00;100003.22;4950874;28;20425;-92
2021/12/01 00:36:52;;;;;;;4.43;4.03;;;;;;;8.92;100.00;99989.41;4936506;29;20034;-92
2021/12/01 00:39:51;;;;;;;4.57;4.18;;;;;;;8.91;100.00;99992.13;4868184;29;20047;-91
2021/12/01 00:42:53;;;;;;;5.97;4.68;;;;;;;8.99;100.00;99995.81;4990311;28;20045;-84
2021/12/01 00:45:28;;;;;;;5.32;4.82;;;;;;;8.91;100.00;99986.91;4991759;28;20026;-92
2021/12/01 00:48:00;;;;;;;5.72;5.03;;;;;;;8.93;100.00;99990.22;4995246;28;20377;-92
2021/12/01 00:50:52;;;;;;;4.78;4.38;;;;;;;8.96;100.00;99982.09;5013466;28;20029;-91
2021/12/01 00:53:43;;;;;;;9.52;5.35;;;;;;;8.87;100.00;99959.25;4995679;28;20033;-91
2021/12/01 00:56:53;;;;;;;4.90;4.45;;;;;;;8.95;100.00;99983.06;4994826;28;20028;-85
2021/12/01 00:59:51;;;;;;;6.00;4.80;;;;;;;8.91;100.00;99976.41;4995187;28;20088;-92
2021/12/01 01:07:01;;;;;;;;;;;;;;;;;;;;;
2021/12/01 01:23:53;;;;;;;7.30;6.60;;;;;;;8.86;100.00;99929.56;4898932;29;20105;-84
2021/12/01 01:27:05;;;;;;;7.82;6.95;;;;;;;8.73;100.00;99913.13;4900227;29;20044;-84
2021/12/01 01:37:41;;;;;;;9.25;8.35;;;;;;;8.76;100.00;99905.84;4877535;29;20033;-91
2021/12/01 01:40:30;;;;;;;8.77;7.88;;;;;;;8.74;100.00;99913.00;4875990;29;20036;-91
2021/12/01 01:43:36;;;;;;;9.00;8.10;;;;;;;8.68;100.00;99892.53;4891939;29;20028;-91
2021/12/01 01:49:58;;;;;;;7.55;6.85;;;;;;;8.69;100.00;99885.50;4918818;29;20042;-85
2021/12/01 01:52:34;;;;;;;7.95;7.20;;;;;;;8.59;100.00;99872.31;4914587;29;20028;-85
2021/12/01 02:16:57;;;;;;;6.25;5.72;;;;;;;8.49;100.00;99824.22;5011567;28;20124;-91
2021/12/01 02:19:58;;;;;;;5.82;5.15;;;;;;;8.46;100.00;99812.19;5014582;28;20091;-91
2021/12/01 02:23:23;;;;;;;5.70;4.80;;;;;;;8.34;100.00;99804.47;5014006;28;20026;-91
2021/12/01 02:35:59;;;;;;;4.25;3.85;;;;;;;8.26;100.00;99764.94;5015361;28;20519;-91
2021/12/01 02:45:09;;;;;;;4.00;3.60;;;;;;;8.20;100.00;99734.81;4988434;28;20238;-91
2021/12/01 02:51:30;;;;;;;5.43;3.70;;;;;;;8.26;100.00;99741.34;4995669;28;20033;-91
2021/12/01 02:55:15;;;;;;;;;;;;;;;;;;;;;
2021/12/01 02:58:49;;;;;;;;;;;;;;;;;;;;;
2021/12/01 03:15:41;;;;;;;6.10;5.22;;;;;;;8.10;100.00;99679.75;4940973;28;20067;-91
2021/12/01 03:18:51;;;;;;;7.57;5.10;;;;;;;8.11;100.00;99673.53;4941256;29;20102;-91
2021/12/01 03:21:22;;;;;;;5.85;5.05;;;;;;;8.05;100.00;99657.50;4981703;28;20068;-84
2021/12/01 03:23:50;;;;;;;5.65;5.00;;;;;;;7.99;100.00;99648.34;5020539;28;20034;-91
2021/12/01 03:26:38;;;;;;;5.28;4.78;;;;;;;8.08;100.00;99663.31;5023364;28;20126;-91
2021/12/01 03:32:40;;;;;;;5.10;4.60;;;;;;;7.98;100.00;99630.97;5003023;28;20037;-92
2021/12/01 03:39:38;;;;;;;;;;;;;;;;;;;;;
2021/12/01 03:42:35;;;;;;;5.63;5.13;;;;;;;8.07;100.00;99614.50;4998926;28;20040;-92
2021/12/01 03:45:46;;;;;;;6.10;4.85;;;;;;;8.05;100.00;99607.72;5014501;28;20029;-92
2021/12/01 03:48:14;;;;;;;5.25;4.75;;;;;;;7.93;99.97;99593.84;5009752;28;20535;-92
2021/12/01 03:54:31;;;;;;;7.10;4.90;;;;;;;7.97;100.00;99587.41;4985680;28;20049;-91
2021/12/01 03:56:56;;;;;;;5.72;4.90;;;;;;;7.84;99.92;99555.34;5012443;28;20029;-84
2021/12/01 03:59:22;;;;;;;7.35;5.13;;;;;;;7.84;100.00;99537.00;4998397;28;20037;-84
2021/12/01 04:01:47;;;;;;;5.80;5.20;;;;;;;7.84;100.00;99534.38;4994314;28;20018;-91
2021/12/01 04:04:22;;;;;;;6.15;5.38;;;;;;;7.81;100.00;99522.38;4977106;28;20030;-91
2021/12/01 04:07:24;;;;;;;6.93;5.78;;;;;;;7.89;99.99;99521.75;4982416;28;20053;-91
2021/12/01 04:10:20;;;;;;;7.20;6.03;;;;;;;7.88;100.00;99525.31;4996657;28;20057;-91
2021/12/01 04:12:46;;;;;;;7.05;6.35;;;;;;;7.79;99.69;99507.75;5013792;28;20280;-91
2021/12/01 04:15:26;;;;;;;7.40;6.18;;;;;;;7.83;99.79;99510.00;5022827;28;20065;-91
2021/12/01 04:17:52;;;;;;;6.43;5.82;;;;;;;7.79;99.72;99507.75;5031885;28;20032;-91
2021/12/01 04:24:20;;;;;;;6.03;5.40;;;;;;;7.86;99.48;99506.28;5033121;28;20120;-91
2021/12/01 04:37:19;;;;;;;5.90;4.50;;;;;;;7.68;99.20;99440.59;5018529;28;20072;-91
2021/12/01 04:46:56;;;;;;;3.97;3.35;;;;;;;7.74;98.18;99436.63;4951601;28;21259;-91
2021/12/01 04:50:12;;;;;;;5.30;3.50;;;;;;;7.74;97.89;99426.16;4962761;28;20031;-91
2021/12/01 04:53:07;;;;;;;4.22;3.33;;;;;;;7.62;98.21;99393.19;4954786;28;20031;-84
2021/12/01 04:55:41;;;;;;;7.93;3.60;;;;;;;7.69;98.22;99410.03;4894157;29;20051;-84
2021/12/01 05:05:23;;;;;;;5.97;3.50;;;;;;;7.48;100.00;99371.63;4936341;28;20033;-91
2021/12/01 05:07:51;;;;;;;5.03;3.70;;;;;;;7.49;100.00;99391.59;5003548;28;20089;-91
2021/12/01 05:24:04;;;;;;;4.40;2.90;;;;;;;7.35;100.00;99338.78;4967617;28;20459;-84
2021/12/01 05:31:16;;;;;;;;;;;;;;;;;;;;;
2021/12/01 06:13:52;;;;;;;2.00;1.80;;;;;;;7.26;100.00;99264.53;4896652;29;20502;-91
2021/12/01 06:16:24;;;;;;;2.28;2.08;;;;;;;7.25;100.00;99256.81;4911381;29;20446;-84
2021/12/01 06:18:50;;;;;;;2.25;1.92;;;;;;;7.28;100.00;99259.16;4992106;28;20041;-84
2021/12/01 06:21:16;;;;;;;2.85;1.95;;;;;;;7.28;100.00;99253.94;5009857;28;20042;-84
2021/12/01 06:23:45;;;;;;;2.58;1.73;;;;;;;7.26;100.00;99238.38;5027514;28;20043;-91
2021/12/01 06:26:10;;;;;;;2.45;2.25;;;;;;;7.24;100.00;99229.81;5012368;28;20017;-85
2021/12/01 06:28:36;;;;;;;2.53;2.00;;;;;;;7.28;100.00;99230.38;5023967;28;20030;-91
2021/12/01 06:31:01;;;;;;;2.45;2.10;;;;;;;7.28;100.00;99217.31;5011206;28;20037;-91
2021/12/01 06:33:26;;;;;;;2.15;1.85;;;;;;;7.29;100.00;99230.25;5010275;28;20022;-91
2021/12/01 06:35:52;;;;;;;2.53;1.92;;;;;;;7.29;100.00;99224.19;5003001;28;20042;-91
2021/12/01 06:38:18;;;;;;;3.17;2.20;;;;;;;7.31;100.00;99230.13;5029969;28;20368;-91
2021/12/01 06:40:45;;;;;;;2.28;2.08;;;;;;;7.31;100.00;99227.50;5028189;28;20489;-91
2021/12/01 06:43:13;;;;;;;3.65;2.50;;;;;;;7.33;100.00;99218.56;5030966;28;20028;-91
2021/12/01 06:45:39;;;;;;;2.33;2.13;;;;;;;7.33;100.00;99210.72;5012979;28;20033;-84
2021/12/01 06:48:05;;;;;;;2.30;2.10;;;;;;;7.32;100.00;99193.38;5029498;28;20029;-91
2021/12/01 06:50:31;;;;;;;3.58;2.45;;;;;;;7.33;100.00;99196.81;4994361;28;20125;-84
2021/12/01 06:52:57;;;;;;;2.65;2.22;;;;;;;7.36;100.00;99210.44;4992392;28;20112;-83
2021/12/01 06:55:23;;;;;;;2.40;2.20;;;;;;;7.39;100.00;99202.31;4992233;28;20096;-84
2021/12/01 06:57:49;;;;;;;3.25;2.17;;;;;;;7.40;100.00;99205.78;5025490;28;20499;-84
2021/12/01 07:00:17;;;;;;;2.40;2.20;;;;;;;7.38;100.00;99192.00;5017477;28;20395;-91
2021/12/01 07:02:45;;;;;;;3.33;2.58;;;;;;;7.41;100.00;99189.94;5012869;28;20029;-91
2021/12/01 07:05:14;;;;;;;2.67;2.47;;;;;;;7.39;100.00;99184.00;5012717;28;20030;-84
2021/12/01 07:07:39;;;;;;;4.18;2.80;;;;;;;7.43;100.00;99174.09;5029455;28;20029;-84
2021/12/01 07:10:09;;;;;;;3.20;2.78;;;;;;;7.42;100.00;99178.50;5029732;28;20037;-84
2021/12/01 07:12:34;;;;;;;4.07;3.10;;;;;;;7.44;100.00;99179.19;5030034;28;20451;-84
2021/12/01 07:14:59;;;;;;;4.15;3.25;;;;;;;7.48;100.00;99164.88;5009997;28;20091;-92
2021/12/01 07:17:25;;;;;;;4.60;3.30;;;;;;;7.49;100.00;99182.25;5012253;28;20044;-84
2021/12/01 07:19:50;;;;;;;3.85;3.42;;;;;;;7.47;100.00;99171.06;5030092;28;20076;-86
2021/12/01 07:22:16;;;;;;;5.45;3.50;;;;;;;7.52;100.00;99184.59;5029051;28;20079;-84
2021/12/01 07:24:45;;;;;;;4.00;3.60;;;;;;;7.53;100.00;99170.53;5012194;28;20029;-91
2021/12/01 07:27:14;;;;;;;4.43;3.80;;;;;;;7.57;100.00;99175.50;5029901;28;20032;-91
2021/12/01 07:29:42;;;;;;;4.53;4.13;;;;;;;7.56;100.00;99158.97;5026491;28;20025;-92
2021/12/01 07:32:08;;;;;;;4.53;4.13;;;;;;;7.57;100.00;99170.25;5009706;28;20124;-91
2021/12/01 07:34:41;;;;;;;4.80;4.07;;;;;;;7.60;100.00;99175.22;5029261;28;20028;-91
2021/12/01 07:37:07;;;;;;;4.65;4.25;;;;;;;7.60;100.00;99165.56;5004751;28;20042;-86
2021/12/01 07:39:33;;;;;;;4.60;4.07;;;;;;;7.63;100.00;99167.13;5011512;28;20458;-85
2021/12/01 07:41:58;;;;;;;5.10;4.28;;;;;;;7.64;100.00;99161.75;5029262;28;20077;-91
2021/12/01 07:44:24;;;;;;;5.55;4.72;;;;;;;7.60;100.00;99159.53;5028015;28;20025;-91
2021/12/01 07:46:50;;;;;;;6.60;4.38;;;;;;;7.64;100.00;99167.00;5011399;28;20083;-86
2021/12/01 07:49:15;;;;;;;4.70;4.30;;;;;;;7.62;100.00;99155.00;5025886;28;20112;-84
2021/12/01 07:51:41;;;;;;;4.63;4.15;;;;;;;7.62;100.00;99158.44;5028853;28;20033;-91
2021/12/01 07:54:06;;;;;;;4.78;4.28;;;;;;;7.68;100.00;99151.84;5010808;28;20048;-85
2021/12/01 07:56:32;;;;;;;6.00;4.40;;;;;;;7.68;100.00;99131.72;5027953;28;20045;-84
2021/12/01 07:58:58;;;;;;;4.63;4.22;;;;;;;7.74;100.00;99135.56;5030054;28;20036;-84
2021/12/01 08:01:23;;;;;;;4.47;4.07;;;;;;;7.75;100.00;99139.84;5030002;28;20021;-84
2021/12/01 08:03:52;;;;;;;4.65;3.80;;;;;;;7.73;100.00;99129.53;5024126;28;20045;-84
2021/12/01 08:06:17;;;;;;;4.60;3.65;;;;;;;7.69;100.00;99124.69;5032757;28;20057;-84
2021/12/01 08:08:43;;;;;;;4.43;4.03;;;;;;;7.76;100.00;99134.47;5033278;28;20114;-84
2021/12/01 08:11:08;;;;;;;4.55;4.15;;;;;;;7.75;100.00;99121.53;5033318;28;20014;-84
2021/12/01 08:13:33;;;;;;;4.90;4.25;;;;;;;7.80;100.00;99135.03;5015277;28;20493;-91
2021/12/01 08:16:00;;;;;;;5.07;3.97;;;;;;;7.79;100.00;99133.38;5033794;28;20442;-92
2021/12/01 08:18:26;;;;;;;4.75;4.35;;;;;;;7.82;100.00;99125.25;5033056;28;20575;-92
2021/12/01 08:20:51;;;;;;;5.55;4.70;;;;;;;7.85;100.00;99122.34;5033364;28;20040;-92
2021/12/01 08:23:16;;;;;;;6.15;4.95;;;;;;;7.86;100.00;99124.00;5014047;28;20103;-92
2021/12/01 08:25:44;;;;;;;5.30;4.80;;;;;;;7.82;100.00;99122.63;5032397;28;20495;-85
2021/12/01 08:28:10;;;;;;;5.20;4.70;;;;;;;7.83;100.00;99105.94;5031639;28;20044;-84
2021/12/01 08:30:36;;;;;;;5.68;5.18;;;;;;;7.82;100.00;99106.91;5031612;28;20479;-91
2021/12/01 08:33:01;;;;;;;4.85;4.40;;;;;;;7.91;100.00;99111.31;5032224;28;20037;-91
2021/12/01 08:35:27;;;;;;;5.00;4.50;;;;;;;7.93;100.00;99108.56;5033519;28;20105;-91
2021/12/01 08:37:52;;;;;;;8.80;4.70;;;;;;;7.90;100.00;99109.66;5015084;28;20029;-91
2021/12/01 08:40:18;;;;;;;4.85;4.30;;;;;;;7.94;100.00;99105.78;5032186;28;20109;-91
2021/12/01 08:42:45;;;;;;;4.47;4.07;;;;;;;7.90;100.00;99099.19;5029714;28;20022;-91
2021/12/01 08:45:12;;;;;;;4.25;3.80;;;;;;;7.98;100.00;99101.91;5020074;28;20030;-91
2021/12/01 08:47:37;;;;;;;4.35;3.60;;;;;;;8.02;100.00;99108.56;5018216;28;20506;-91
2021/12/01 08:50:05;;;;;;;4.30;3.90;;;;;;;8.02;100.00;99095.47;5015231;28;20105;-91
2021/12/01 08:52:31;;;;;;;4.75;3.42;;;;;;;8.06;100.00;99109.94;5031560;28;20456;-91
2021/12/01 08:54:56;;;;;;;4.88;3.92;;;;;;;8.06;100.00;99091.59;5031768;28;20072;-84
2021/12/01 08:57:21;;;;;;;3.85;3.47;;;;;;;8.10;100.00;99102.63;5032162;28;20053;-84
2021/12/01 08:59:48;;;;;;;3.90;3.30;;;;;;;8.14;100.00;99102.19;5030004;28;20032;-91
2021/12/01 09:02:14;;;;;;;4.65;3.58;;;;;;;8.17;100.00;99099.28;5029805;28;20026;-86
2021/12/01 09:04:39;;;;;;;3.38;3.08;;;;;;;8.18;100.00;99103.56;5020305;28;20021;-91
2021/12/01 09:07:05;;;;;;;3.05;2.75;;;;;;;8.20;100.00;99097.34;5032642;28;20075;-91
2021/12/01 09:09:30;;;;;;;2.95;2.65;;;;;;;8.23;100.00;99112.78;5015172;28;20120;-86
2021/12/01 09:11:56;;;;;;;2.75;2.50;;;;;;;8.21;100.00;99099.00;5032608;28;20104;-91
2021/12/01 09:14:26;;;;;;;2.58;2.20;;;;;;;8.22;100.00;99106.72;5014315;28;20025;-91
2021/12/01 09:16:53;;;;;;;2.30;2.10;;;;;;;8.25;100.00;99108.22;5032160;28;20056;-84
2021/12/01 09:19:19;;;;;;;2.35;2.10;;;;;;;8.20;100.00;99105.22;5032300;28;20029;-91
2021/12/01 09:21:45;;;;;;;2.35;2.13;;;;;;;8.20;100.00;99099.97;5012312;28;20503;-83
2021/12/01 09:24:10;;;;;;;2.40;1.90;;;;;;;8.17;100.00;99101.91;5030729;28;20075;-91
2021/12/01 09:26:36;;;;;;;2.40;2.20;;;;;;;8.23;100.00;99104.94;5032237;28;20025;-85
2021/12/01 09:29:02;;;;;;;3.45;2.05;;;;;;;8.20;100.00;99099.97;5031678;28;20029;-92
2021/12/01 09:31:28;;;;;;;2.72;2.03;;;;;;;8.15;100.00;99113.50;5033288;28;20029;-91
2021/12/01 09:33:53;;;;;;;4.07;2.30;;;;;;;8.17;100.00;99120.25;5033555;28;20123;-84
2021/12/01 09:36:19;;;;;;;2.72;2.53;;;;;;;8.14;100.00;99122.31;5033045;28;20029;-92
2021/12/01 09:38:44;;;;;;;3.70;2.83;;;;;;;8.16;100.00;99142.16;5030293;28;20033;-85
2021/12/01 09:41:14;;;;;;;3.95;2.60;;;;;;;8.13;100.00;99139.84;5032553;28;20053;-91
2021/12/01 09:43:40;;;;;;;2.95;2.38;;;;;;;8.13;100.00;99131.97;5033888;28;20075;-84
2021/12/01 09:46:09;;;;;;;4.45;2.60;;;;;;;8.06;100.00;99133.50;5033546;28;20434;-85
2021/12/01 09:48:37;;;;;;;3.47;2.30;;;;;;;8.06;100.00;99146.59;5032135;28;20376;-91
2021/12/01 09:51:02;;;;;;;6.88;2.45;;;;;;;8.07;99.62;99131.72;5030342;28;20047;-92
2021/12/01 09:53:29;;;;;;;6.85;2.20;;;;;;;8.03;99.37;99135.56;5024227;28;20025;-92
2021/12/01 09:55:55;;;;;;;8.30;2.72;;;;;;;7.99;99.68;99127.16;5029978;28;20116;-85
2021/12/01 09:58:30;;;;;;;7.72;2.33;;;;;;;8.03;99.89;99141.66;5022785;28;20108;-83
2021/12/01 10:00:58;;;;;;;6.70;2.95;;;;;;;8.02;100.00;99139.16;5031704;28;20025;-92
2021/12/01 10:03:24;;;;;;;7.20;2.40;;;;;;;7.99;99.37;99136.78;5031275;28;20029;-92
2021/12/01 10:05:51;;;;;;;8.23;2.40;;;;;;;7.98;99.53;99138.59;5032574;28;20036;-91
2021/12/01 10:08:21;;;;;;;9.43;2.20;;;;;;;7.97;99.77;99144.78;5029990;28;20108;-85
2021/12/01 10:10:47;;;;;;;8.52;2.38;;;;;;;7.98;99.69;99138.59;5025026;28;20035;-91
2021/12/01 10:13:13;;;;;;;8.55;2.90;;;;;;;7.97;99.36;99131.69;5009254;28;20026;-91
2021/12/01 10:15:41;;;;;;;8.93;1.80;;;;;;;7.93;97.95;99126.88;5031312;28;20032;-84
2021/12/01 10:18:11;;;;;;;7.07;2.03;;;;;;;7.95;98.39;99132.81;5030368;28;20041;-91
2021/12/01 10:20:36;;;;;;;11.15;2.10;;;;;;;7.92;98.62;99128.66;5012392;28;20041;-85
2021/12/01 10:23:07;;;;;;;10.98;2.20;;;;;;;7.86;97.81;99114.34;5031530;28;20378;-91
2021/12/01 10:25:33;;;;;;;8.70;1.85;;;;;;;7.91;96.97;99121.78;5012611;28;20033;-91
2021/12/01 10:27:58;;;;;;;8.40;1.90;;;;;;;7.92;97.21;99131.28;5026994;28;20032;-91
2021/12/01 10:30:41;;;;;;;13.25;2.10;;;;;;;7.92;97.74;99139.16;5030279;28;20484;-91
2021/12/01 10:33:15;;;;;;;11.93;2.00;;;;;;;7.93;96.79;99138.19;5023301;28;20031;-91
2021/12/01 10:35:44;;;;;;;12.73;1.92;;;;;;;7.91;96.35;99142.72;5029753;28;20032;-92
2021/12/01 10:38:14;;;;;;;15.00;2.00;;;;;;;7.85;95.93;99130.19;5029957;28;20042;-91
2021/12/01 10:40:40;;;;;;;14.55;2.05;;;;;;;7.90;94.23;99130.59;5010518;28;20033;-92
2021/12/01 10:43:14;;;;;;;9.35;1.65;;;;;;;7.95;93.45;99122.34;5028652;28;20527;-86
2021/12/01 10:45:47;;;;;;;8.25;1.30;;;;;;;7.92;92.96;99128.66;5030995;28;20029;-91
2021/12/01 10:48:22;;;;;;;5.90;1.35;;;;;;;7.93;93.39;99122.47;5030673;28;20029;-91
2021/12/01 10:50:48;;;;;;;11.57;1.67;;;;;;;7.94;93.08;99128.53;5012788;28;20439;-91
2021/12/01 10:53:18;;;;;;;9.15;1.30;;;;;;;7.91;92.01;99111.31;5012270;28;20224;-91
2021/12/01 10:55:49;;;;;;;8.80;1.33;;;;;;;7.90;91.87;99100.97;5029874;28;20067;-92
2021/12/01 10:58:15;;;;;;;5.68;1.40;;;;;;;7.90;92.66;99114.06;5030794;28;20395;-91
2021/12/01 11:00:46;;;;;;;7.38;1.55;;;;;;;7.93;92.90;99116.41;5013495;28;20387;-91
2021/12/01 11:03:16;;;;;;;8.63;1.52;;;;;;;7.95;92.57;99117.91;5008540;28;20113;-85
2021/12/01 11:05:47;;;;;;;9.80;1.48;;;;;;;7.96;92.96;99116.94;5011581;28;20124;-91
2021/12/01 11:08:14;;;;;;;7.38;1.10;;;;;;;7.91;92.50;99119.16;5029618;28;20029;-91
2021/12/01 11:10:40;;;;;;;7.53;1.50;;;;;;;7.92;92.70;99123.44;5030015;28;20040;-85
2021/12/01 11:13:06;;;;;;;24.90;2.72;;;;;;;7.92;92.99;99127.84;5022955;28;20025;-91
2021/12/01 11:15:36;;;;;;;44.75;5.25;;;;;;;7.91;91.74;99147.13;5011699;28;20029;-91
2021/12/01 11:18:05;;;;;;;31.67;4.05;;;;;;;7.86;91.25;99140.53;5030534;28;20029;-85
2021/12/01 11:20:40;;;;;;;7.25;1.27;;;;;;;7.84;90.94;99144.25;5008352;28;20033;-86
2021/12/01 11:23:10;;;;;;;5.85;1.40;;;;;;;7.84;91.71;99139.03;5027201;28;20045;-87
2021/12/01 11:25:37;;;;;;;4.97;1.08;;;;;;;7.83;90.85;99132.94;5029724;28;20037;-92
2021/12/01 11:28:05;;;;;;;6.00;1.10;;;;;;;7.83;91.50;99137.38;5010877;28;20021;-93
2021/12/01 11:30:30;;;;;;;8.50;2.45;;;;;;;7.84;91.71;99141.63;5029709;28;20533;-93
2021/12/01 11:32:56;;;;;;;9.65;1.40;;;;;;;7.79;92.08;99139.44;5029536;28;20021;-93
2021/12/01 11:35:22;;;;;;;5.03;1.10;;;;;;;7.78;90.91;99136.94;5028403;28;20377;-85
2021/12/01 11:37:55;;;;;;;5.78;1.10;;;;;;;7.79;92.24;99138.59;5011482;28;20025;-85
2021/12/01 11:40:22;;;;;;;154.07;14.15;;;;;;;7.76;90.60;99136.28;5031458;28;20031;-85
2021/12/01 11:42:47;;;;;;;58.38;7.47;;;;;;;7.77;91.00;99130.91;5032930;28;20052;-85
2021/12/01 11:45:14;;;;;;;25.35;2.92;;;;;;;7.80;92.41;99127.16;5034547;28;20479;-91
2021/12/01 11:47:46;;;;;;;6.28;1.00;;;;;;;7.80;90.75;99125.38;5014980;28;20026;-93
2021/12/01 11:50:15;;;;;;;181.55;16.98;;;;;;;7.77;91.12;99109.13;5013566;28;20017;-93
2021/12/01 11:52:55;;;;;;;25.42;3.22;;;;;;;7.81;90.15;99110.50;5015721;28;20029;-93
2021/12/01 11:56:01;;;;;;;51.17;5.50;;;;;;;7.84;91.01;99118.91;5032971;28;20033;-85
2021/12/01 11:58:43;;;;;;;8.00;1.65;;;;;;;7.83;90.49;99119.03;5019512;28;20096;-90
2021/12/01 12:01:20;;;;;;;6.63;1.00;;;;;;;7.85;90.85;99125.78;5033502;28;20030;-91
2021/12/01 12:03:47;;;;;;;9.80;1.48;;;;;;;7.85;89.91;99132.81;5029979;28;20475;-84
2021/12/01 12:06:22;;;;;;;7.50;1.20;;;;;;;7.81;90.48;99126.22;5014627;28;20039;-91
2021/12/01 12:08:54;;;;;;;6.63;1.20;;;;;;;7.82;90.65;99133.91;5030500;28;20387;-91
2021/12/01 12:11:35;;;;;;;7.18;1.35;;;;;;;7.84;91.10;99133.78;5014571;28;20116;-87
2021/12/01 12:14:07;;;;;;;5.65;1.42;;;;;;;7.83;89.99;99142.59;5031553;28;20387;-93
2021/12/01 12:16:34;;;;;;;7.95;1.35;;;;;;;7.82;90.07;99135.72;5029315;28;20036;-93
2021/12/01 12:19:00;;;;;;;5.85;1.20;;;;;;;7.84;89.40;99136.41;5032056;28;20029;-87
2021/12/01 12:21:50;;;;;;;6.70;1.10;;;;;;;7.83;89.21;99139.97;5010225;28;20027;-93
2021/12/01 12:24:19;;;;;;;8.50;1.60;;;;;;;7.82;90.37;99130.47;5032121;28;20009;-93
2021/12/01 12:26:53;;;;;;;9.70;1.23;;;;;;;7.84;88.72;99141.63;5012532;28;20021;-85
2021/12/01 12:29:22;;;;;;;8.45;1.40;;;;;;;7.84;89.46;99139.03;5013852;28;20079;-86
2021/12/01 12:31:50;;;;;;;7.85;1.55;;;;;;;7.82;89.65;99128.69;5023691;28;20021;-92
2021/12/01 12:34:20;;;;;;;11.95;1.50;;;;;;;7.82;89.80;99115.59;5003234;28;20538;-86
2021/12/01 12:36:49;;;;;;;26.65;3.00;;;;;;;7.84;89.68;99125.94;5022209;28;20017;-86
2021/12/01 12:39:43;;;;;;;54.58;5.45;;;;;;;7.82;90.45;99128.69;5021918;28;20028;-92
2021/12/01 12:42:29;;;;;;;9.25;1.48;;;;;;;7.88;90.14;99127.31;5024081;28;20117;-92
2021/12/01 12:48:23;;;;;;;9.88;1.42;;;;;;;7.80;90.43;99130.63;5023479;28;20105;-86
2021/12/01 12:51:18;;;;;;;398.23;39.15;;;;;;;7.89;90.99;99144.66;5018911;28;20550;-86
2021/12/01 12:54:03;;;;;;;11.98;1.92;;;;;;;7.89;90.45;99133.38;5005925;28;20039;-92
2021/12/01 12:56:32;;;;;;;9.85;1.88;;;;;;;7.79;90.19;99118.50;4986532;28;20049;-92
2021/12/01 12:59:24;;;;;;;9.85;1.70;;;;;;;7.91;91.03;99131.44;4990929;28;20035;-85
2021/12/01 13:02:09;;;;;;;7.60;1.13;;;;;;;7.89;90.29;99134.19;4991401;28;20034;-85
2021/12/01 13:04:47;;;;;;;8.38;1.30;;;;;;;7.92;90.74;99125.22;4991061;28;20026;-86
2021/12/01 13:07:34;;;;;;;10.75;1.40;;;;;;;7.94;90.78;99131.97;4973225;28;20038;-85
2021/12/01 13:10:17;;;;;;;9.38;1.35;;;;;;;7.96;90.04;99131.84;4990677;28;20030;-86
2021/12/01 13:13:07;;;;;;;6.47;1.20;;;;;;;7.96;90.40;99135.28;4989497;28;20501;-86
2021/12/01 13:15:54;;;;;;;16.45;1.88;;;;;;;7.91;89.50;99115.72;4971126;28;20034;-86
2021/12/01 13:18:28;;;;;;;217.43;19.83;;;;;;;7.95;89.36;99133.63;4960234;28;20042;-91
2021/12/01 13:21:01;;;;;;;90.82;9.02;;;;;;;7.94;88.77;99118.88;4987124;28;20026;-92
2021/12/01 13:23:39;;;;;;;9.55;1.60;;;;;;;7.95;89.04;99128.41;4996807;28;20171;-91
2021/12/01 13:26:30;;;;;;;11.18;1.58;;;;;;;7.97;88.97;99125.63;4984555;28;20073;-91
2021/12/01 13:29:38;;;;;;;8.50;1.65;;;;;;;7.98;88.61;99128.13;5026267;28;20033;-91
2021/12/01 13:32:06;;;;;;;9.75;1.70;;;;;;;7.98;88.37;99133.34;4996007;28;20033;-91
2021/12/01 13:34:34;;;;;;;13.30;1.48;;;;;;;7.98;89.39;99133.34;4994444;28;20128;-91
2021/12/01 13:37:08;;;;;;;12.88;2.60;;;;;;;7.97;88.43;99134.31;5004635;28;20041;-91
2021/12/01 13:39:40;;;;;;;8.50;1.70;;;;;;;8.01;89.76;99143.56;5014765;28;20539;-91
2021/12/01 13:42:16;;;;;;;7.40;1.27;;;;;;;7.92;90.20;99128.66;5032001;28;20052;-91
2021/12/01 13:44:44;;;;;;;10.57;1.40;;;;;;;7.93;90.37;99148.66;5032431;28;20044;-85
2021/12/01 13:47:33;;;;;;;11.80;1.80;;;;;;;7.92;91.61;99144.38;5021243;28;20044;-85
2021/12/01 13:50:01;;;;;;;10.85;2.33;;;;;;;7.88;90.78;99145.63;5023362;28;20128;-85
2021/12/01 13:52:27;;;;;;;8.40;2.10;;;;;;;7.81;91.06;99136.69;5029338;28;20041;-85
2021/12/01 13:54:55;;;;;;;10.98;1.95;;;;;;;7.81;91.22;99152.38;5031906;28;20510;-84
2021/12/01 13:57:20;;;;;;;10.82;1.80;;;;;;;7.75;90.34;99142.47;5013189;28;20030;-85
2021/12/01 13:59:48;;;;;;;12.10;1.90;;;;;;;7.78;90.20;99142.19;5013598;28;20032;-85
2021/12/01 14:02:29;;;;;;;13.40;1.92;;;;;;;7.77;90.90;99156.25;5030354;28;20032;-85
2021/12/01 14:04:59;;;;;;;11.50;1.80;;;;;;;7.75;89.75;99137.22;5012899;28;20484;-91
2021/12/01 14:07:46;;;;;;;277.00;23.55;;;;;;;7.80;89.60;99156.78;5013250;28;20014;-85
2021/12/01 14:10:20;;;;;;;31.38;4.43;;;;;;;7.81;90.18;99157.63;5013130;28;20120;-85
2021/12/01 14:12:52;;;;;;;12.70;2.10;;;;;;;7.77;90.82;99135.31;5030958;28;20057;-86
2021/12/01 14:16:04;;;;;;;18.52;2.55;;;;;;;7.78;90.80;99157.91;5031128;28;20029;-92
2021/12/01 14:18:33;;;;;;;14.85;2.20;;;;;;;7.82;89.31;99164.50;5012398;28;20045;-93
2021/12/01 14:21:17;;;;;;;294.95;26.45;;;;;;;7.80;90.27;99159.41;5013779;28;20033;-92
2021/12/01 14:24:00;;;;;;;47.72;5.75;;;;;;;7.74;89.97;99151.28;5007910;28;20076;-93
2021/12/01 14:26:36;;;;;;;12.27;2.30;;;;;;;7.82;89.48;99174.97;5020494;28;20037;-92
2021/12/01 14:29:07;;;;;;;12.13;1.80;;;;;;;7.80;90.41;99169.06;5016365;28;20465;-92
2021/12/01 14:31:33;;;;;;;13.73;2.30;;;;;;;7.80;89.33;99172.50;5020947;28;20025;-89
2021/12/01 14:34:14;;;;;;;13.32;2.50;;;;;;;7.80;89.49;99182.16;5018055;28;20491;-92
2021/12/01 14:36:41;;;;;;;10.68;2.13;;;;;;;7.79;89.25;99185.72;5007498;28;20490;-92
2021/12/01 14:39:13;;;;;;;14.90;2.63;;;;;;;7.81;88.62;99184.63;5010016;28;20025;-93
2021/12/01 14:41:38;;;;;;;11.85;2.22;;;;;;;7.80;89.01;99187.38;5021631;28;20024;-92
2021/12/01 14:44:06;;;;;;;12.27;2.22;;;;;;;7.79;89.25;99181.31;5022124;28;20026;-92
2021/12/01 14:46:33;;;;;;;16.42;2.50;;;;;;;7.79;89.09;99196.22;5009306;28;20290;-92
2021/12/01 14:49:08;;;;;;;17.00;3.33;;;;;;;7.77;88.39;99192.91;5020759;28;20017;-86
2021/12/01 14:51:45;;;;;;;381.80;37.17;;;;;;;7.75;87.97;99189.59;5020438;28;20032;-86
2021/12/01 14:54:16;;;;;;;43.92;6.90;;;;;;;7.74;87.47;99180.09;4999808;28;20022;-86
2021/12/01 14:56:55;;;;;;;21.20;3.13;;;;;;;7.72;88.15;99174.16;5015619;28;20025;-86
2021/12/01 14:59:21;;;;;;;17.45;4.38;;;;;;;7.70;88.74;99191.78;5018518;28;20479;-87
2021/12/01 15:02:12;;;;;;;18.75;4.35;;;;;;;7.72;88.63;99185.44;5019477;28;20452;-86
2021/12/01 15:04:57;;;;;;;16.00;2.70;;;;;;;7.68;87.98;99198.97;5018534;28;20013;-92
2021/12/01 15:07:22;;;;;;;20.00;2.80;;;;;;;7.66;87.58;99193.84;5017520;28;20391;-93
2021/12/01 15:09:47;;;;;;;13.32;2.83;;;;;;;7.69;87.72;99195.38;5020834;28;20018;-86
2021/12/01 15:12:30;;;;;;;11.02;2.30;;;;;;;7.67;87.35;99197.31;5020636;28;20151;-86
2021/12/01 15:14:55;;;;;;;413.98;39.50;;;;;;;7.68;86.77;99197.16;5021782;28;20481;-92
2021/12/01 15:17:21;;;;;;;165.95;15.93;;;;;;;7.68;87.43;99205.00;5004392;28;20113;-87
2021/12/01 15:20:06;;;;;;;11.43;2.47;;;;;;;7.69;87.73;99211.06;5029959;28;20045;-92
2021/12/01 15:22:31;;;;;;;16.23;2.67;;;;;;;7.62;87.65;99197.72;5016182;28;20445;-91
2021/12/01 15:24:57;;;;;;;16.02;2.90;;;;;;;7.63;86.92;99211.63;5033700;28;20513;-91
2021/12/01 15:27:23;;;;;;;194.23;17.13;;;;;;;7.57;87.04;99210.34;5014951;28;20029;-91
2021/12/01 15:29:48;;;;;;;130.15;13.73;;;;;;;7.56;87.66;99211.31;5033408;28;20104;-91
2021/12/01 15:32:14;;;;;;;60.35;7.75;;;;;;;7.51;88.00;99218.75;5046293;28;20498;-91